sensor_id;sensor_type;location;lat;lon;timestamp;temperature;humidity
10441;DHT22;5268;49.346;9.522;2023-03-23T04:07:59;13.90;99.90
10441;DHT22;5268;49.346;9.522;2023-03-23T04:13:02;13.90;99.90
10441;DHT22;5268;49.346;9.522;2023-03-23T04:18:05;13.90;99.90
10441;DHT22;5268;49.346;9.522;2023-03-23T04:23:08;13.90;99.90
10441;DHT22;5268;49.346;9.522;2023-03-23T04:28:10;13.90;99.90
10441;DHT22;5268;49.346;9.522;2023-03-23T04:33:12;13.90;99.90
10441;DHT22;5268;49.346;9.522;2023-03-23T04:38:16;13.90;99.90
10441;DHT22;5268;49.346;9.522;2023-03-23T04:43:21;13.90;99.90
10441;DHT22;5268;49.346;9.522;2023-03-23T04:48:25;14.00;99.90
10441;DHT22;5268;49.346;9.522;2023-03-23T04:53:29;13.90;99.90
10441;DHT22;5268;49.346;9.522;2023-03-23T04:58:31;13.90;99.90
10441;DHT22;5268;49.346;9.522;2023-03-23T05:03:34;13.90;99.90
10441;DHT22;5268;49.346;9.522;2023-03-23T05:08:37;14.00;99.90
10441;DHT22;5268;49.346;9.522;2023-03-23T05:13:40;13.90;99.90
10441;DHT22;5268;49.346;9.522;2023-03-23T05:18:44;13.90;99.90
10441;DHT22;5268;49.346;9.522;2023-03-23T05:23:48;14.00;99.90
10441;DHT22;5268;49.346;9.522;2023-03-23T05:28:55;14.00;99.90
10441;DHT22;5268;49.346;9.522;2023-03-23T05:33:57;14.00;99.90
10441;DHT22;5268;49.346;9.522;2023-03-23T05:39:00;14.00;99.90
10441;DHT22;5268;49.346;9.522;2023-03-23T05:44:04;14.00;99.90
10441;DHT22;5268;49.346;9.522;2023-03-23T05:49:06;14.00;99.90
10441;DHT22;5268;49.346;9.522;2023-03-23T05:54:10;14.00;99.90
10441;DHT22;5268;49.346;9.522;2023-03-23T05:59:12;14.00;99.90
10441;DHT22;5268;49.346;9.522;2023-03-23T06:04:14;14.00;99.90
10441;DHT22;5268;49.346;9.522;2023-03-23T06:09:18;14.00;99.90
10441;DHT22;5268;49.346;9.522;2023-03-23T06:14:21;14.00;99.90
10441;DHT22;5268;49.346;9.522;2023-03-23T06:19:23;14.00;99.90
10441;DHT22;5268;49.346;9.522;2023-03-23T06:24:28;14.00;99.90
10441;DHT22;5268;49.346;9.522;2023-03-23T06:29:30;14.10;99.90
10441;DHT22;5268;49.346;9.522;2023-03-23T06:34:33;14.10;99.90
10441;DHT22;5268;49.346;9.522;2023-03-23T06:39:36;14.10;99.90
10441;DHT22;5268;49.346;9.522;2023-03-23T06:44:40;14.10;99.90
10441;DHT22;5268;49.346;9.522;2023-03-23T06:49:42;14.10;99.90
10441;DHT22;5268;49.346;9.522;2023-03-23T06:54:46;14.20;99.90
10441;DHT22;5268;49.346;9.522;2023-03-23T06:59:48;14.10;99.90
10441;DHT22;5268;49.346;9.522;2023-03-23T07:04:51;14.10;99.90
10441;DHT22;5268;49.346;9.522;2023-03-23T07:09:56;14.10;99.90
10441;DHT22;5268;49.346;9.522;2023-03-23T07:14:58;14.10;99.90
10441;DHT22;5268;49.346;9.522;2023-03-23T07:20:00;14.10;99.90
10441;DHT22;5268;49.346;9.522;2023-03-23T07:25:04;14.10;99.90
10441;DHT22;5268;49.346;9.522;2023-03-23T07:30:08;14.10;99.90
10441;DHT22;5268;49.346;9.522;2023-03-23T07:35:10;14.10;99.90
10441;DHT22;5268;49.346;9.522;2023-03-23T07:40:14;14.00;99.90
10441;DHT22;5268;49.346;9.522;2023-03-23T07:45:16;14.00;99.90
10441;DHT22;5268;49.346;9.522;2023-03-23T07:50:19;14.00;99.90
10441;DHT22;5268;49.346;9.522;2023-03-23T07:55:24;14.00;99.90
10441;DHT22;5268;49.346;9.522;2023-03-23T08:00:27;14.10;99.90
10441;DHT22;5268;49.346;9.522;2023-03-23T08:05:30;14.20;99.90
10441;DHT22;5268;49.346;9.522;2023-03-23T08:10:34;14.30;99.90
10441;DHT22;5268;49.346;9.522;2023-03-23T08:15:37;14.40;99.90
10441;DHT22;5268;49.346;9.522;2023-03-23T08:20:39;14.60;99.90
10441;DHT22;5268;49.346;9.522;2023-03-23T08:25:43;14.80;99.90
10441;DHT22;5268;49.346;9.522;2023-03-23T08:30:45;14.80;99.90
10441;DHT22;5268;49.346;9.522;2023-03-23T08:35:54;14.80;99.90
10441;DHT22;5268;49.346;9.522;2023-03-23T08:40:59;14.80;99.90
10441;DHT22;5268;49.346;9.522;2023-03-23T08:46:03;14.70;99.90
10441;DHT22;5268;49.346;9.522;2023-03-23T08:51:10;14.70;99.90
10441;DHT22;5268;49.346;9.522;2023-03-23T08:56:14;14.60;99.90
10441;DHT22;5268;49.346;9.522;2023-03-23T09:01:16;14.60;99.90
10441;DHT22;5268;49.346;9.522;2023-03-23T09:06:18;14.60;99.90
10441;DHT22;5268;49.346;9.522;2023-03-23T09:11:22;14.50;99.90
10441;DHT22;5268;49.346;9.522;2023-03-23T09:16:24;14.60;99.90
10441;DHT22;5268;49.346;9.522;2023-03-23T09:21:27;14.70;99.90
10441;DHT22;5268;49.346;9.522;2023-03-23T09:26:31;14.80;99.90
10441;DHT22;5268;49.346;9.522;2023-03-23T09:31:33;14.80;99.90
10441;DHT22;5268;49.346;9.522;2023-03-23T09:36:37;14.90;99.90
10441;DHT22;5268;49.346;9.522;2023-03-23T09:42:02;14.90;99.90
10441;DHT22;5268;49.346;9.522;2023-03-23T09:47:12;14.90;99.90
10441;DHT22;5268;49.346;9.522;2023-03-23T09:52:18;14.90;99.90
10441;DHT22;5268;49.346;9.522;2023-03-23T09:57:26;14.90;99.90
10441;DHT22;5268;49.346;9.522;2023-03-23T10:02:32;14.90;99.90
10441;DHT22;5268;49.346;9.522;2023-03-23T10:07:35;14.90;99.90
10441;DHT22;5268;49.346;9.522;2023-03-23T10:12:44;14.90;99.90
10441;DHT22;5268;49.346;9.522;2023-03-23T10:17:52;14.90;99.90
10441;DHT22;5268;49.346;9.522;2023-03-23T10:23:00;14.90;99.90
10441;DHT22;5268;49.346;9.522;2023-03-23T10:28:10;14.80;99.90
10441;DHT22;5268;49.346;9.522;2023-03-23T10:33:16;14.80;99.90
10441;DHT22;5268;49.346;9.522;2023-03-23T10:38:23;14.80;99.90
10441;DHT22;5268;49.346;9.522;2023-03-23T10:43:28;14.80;99.90
10441;DHT22;5268;49.346;9.522;2023-03-23T10:48:31;14.90;99.90
10441;DHT22;5268;49.346;9.522;2023-03-23T10:53:37;15.00;99.90
10441;DHT22;5268;49.346;9.522;2023-03-23T10:58:41;15.10;99.90
10441;DHT22;5268;49.346;9.522;2023-03-23T11:03:44;15.20;99.90
10441;DHT22;5268;49.346;9.522;2023-03-23T11:08:52;15.20;99.90
10441;DHT22;5268;49.346;9.522;2023-03-23T11:14:00;15.20;99.90
10441;DHT22;5268;49.346;9.522;2023-03-23T11:19:13;15.10;99.90
10441;DHT22;5268;49.346;9.522;2023-03-23T11:24:15;15.10;99.90
10441;DHT22;5268;49.346;9.522;2023-03-23T11:29:20;15.00;99.90
10441;DHT22;5268;49.346;9.522;2023-03-23T11:34:25;15.10;99.90
10441;DHT22;5268;49.346;9.522;2023-03-23T11:39:34;14.90;99.90
10441;DHT22;5268;49.346;9.522;2023-03-23T11:44:42;14.90;99.90
10441;DHT22;5268;49.346;9.522;2023-03-23T11:49:52;14.90;99.90
10441;DHT22;5268;49.346;9.522;2023-03-23T11:54:59;14.90;99.90
10441;DHT22;5268;49.346;9.522;2023-03-23T12:00:14;14.80;99.90
10441;DHT22;5268;49.346;9.522;2023-03-23T12:05:32;14.80;99.90
10441;DHT22;5268;49.346;9.522;2023-03-23T12:10:42;14.80;99.90
10441;DHT22;5268;49.346;9.522;2023-03-23T12:15:55;14.80;99.90
10441;DHT22;5268;49.346;9.522;2023-03-23T12:21:08;14.80;99.90
10441;DHT22;5268;49.346;9.522;2023-03-23T12:26:19;14.90;99.90
10441;DHT22;5268;49.346;9.522;2023-03-23T12:31:29;14.80;99.90
10441;DHT22;5268;49.346;9.522;2023-03-23T12:36:45;14.80;99.90
10441;DHT22;5268;49.346;9.522;2023-03-23T12:41:51;14.80;99.90
10441;DHT22;5268;49.346;9.522;2023-03-23T12:47:21;14.80;99.90
10441;DHT22;5268;49.346;9.522;2023-03-23T12:52:30;14.80;99.90
10441;DHT22;5268;49.346;9.522;2023-03-23T12:57:36;14.80;99.90
10441;DHT22;5268;49.346;9.522;2023-03-23T13:02:46;14.90;99.90
10441;DHT22;5268;49.346;9.522;2023-03-23T13:07:54;14.90;99.90
10441;DHT22;5268;49.346;9.522;2023-03-23T13:12:58;15.00;99.90
10441;DHT22;5268;49.346;9.522;2023-03-23T13:18:08;15.00;99.90
10441;DHT22;5268;49.346;9.522;2023-03-23T13:23:14;15.00;99.90
10441;DHT22;5268;49.346;9.522;2023-03-23T13:28:19;15.00;99.90
10441;DHT22;5268;49.346;9.522;2023-03-23T13:33:24;15.00;99.90
10441;DHT22;5268;49.346;9.522;2023-03-23T13:38:28;15.00;99.90
10441;DHT22;5268;49.346;9.522;2023-03-23T13:43:33;15.00;99.90
10441;DHT22;5268;49.346;9.522;2023-03-23T13:48:45;15.10;99.90
10441;DHT22;5268;49.346;9.522;2023-03-23T13:53:48;15.10;99.90
10441;DHT22;5268;49.346;9.522;2023-03-23T13:59:04;15.20;99.90
10441;DHT22;5268;49.346;9.522;2023-03-23T14:04:12;15.30;99.90
10441;DHT22;5268;49.346;9.522;2023-03-23T14:09:18;15.40;99.90
10441;DHT22;5268;49.346;9.522;2023-03-23T14:14:25;15.50;99.90
10441;DHT22;5268;49.346;9.522;2023-03-23T14:19:30;15.50;99.90
10441;DHT22;5268;49.346;9.522;2023-03-23T14:24:38;15.60;99.90
10441;DHT22;5268;49.346;9.522;2023-03-23T14:29:40;15.60;99.90
10441;DHT22;5268;49.346;9.522;2023-03-23T14:34:47;15.60;99.90
10441;DHT22;5268;49.346;9.522;2023-03-23T14:39:52;15.60;99.90
10441;DHT22;5268;49.346;9.522;2023-03-23T14:44:54;15.60;99.90
10441;DHT22;5268;49.346;9.522;2023-03-23T14:49:58;15.60;99.90
10441;DHT22;5268;49.346;9.522;2023-03-23T14:55:11;15.50;99.90
10441;DHT22;5268;49.346;9.522;2023-03-23T15:00:15;15.50;99.90
10441;DHT22;5268;49.346;9.522;2023-03-23T15:05:25;15.50;99.90
10441;DHT22;5268;49.346;9.522;2023-03-23T15:10:28;15.40;99.90
10441;DHT22;5268;49.346;9.522;2023-03-23T15:15:31;15.40;99.90
10441;DHT22;5268;49.346;9.522;2023-03-23T15:20:47;15.40;99.90
10441;DHT22;5268;49.346;9.522;2023-03-23T15:25:51;15.40;99.90
10441;DHT22;5268;49.346;9.522;2023-03-23T15:30:55;15.40;99.90
10441;DHT22;5268;49.346;9.522;2023-03-23T15:36:06;15.40;99.90
10441;DHT22;5268;49.346;9.522;2023-03-23T15:41:23;15.40;99.90
10441;DHT22;5268;49.346;9.522;2023-03-23T15:46:27;15.30;99.90
10441;DHT22;5268;49.346;9.522;2023-03-23T15:51:31;15.30;99.90
10441;DHT22;5268;49.346;9.522;2023-03-23T15:56:34;15.40;99.90
10441;DHT22;5268;49.346;9.522;2023-03-23T16:01:37;15.40;99.90
10441;DHT22;5268;49.346;9.522;2023-03-23T16:06:42;15.30;99.90
10441;DHT22;5268;49.346;9.522;2023-03-23T16:11:44;15.30;99.90
10441;DHT22;5268;49.346;9.522;2023-03-23T16:16:48;15.20;99.90
10441;DHT22;5268;49.346;9.522;2023-03-23T16:21:53;15.10;99.90
10441;DHT22;5268;49.346;9.522;2023-03-23T16:26:55;15.00;99.90
10441;DHT22;5268;49.346;9.522;2023-03-23T16:31:57;15.00;99.90
10441;DHT22;5268;49.346;9.522;2023-03-23T16:37:01;15.10;99.90
10441;DHT22;5268;49.346;9.522;2023-03-23T16:42:03;15.10;99.90
10441;DHT22;5268;49.346;9.522;2023-03-23T16:47:05;15.10;99.90
10441;DHT22;5268;49.346;9.522;2023-03-23T16:52:09;15.10;99.90
10441;DHT22;5268;49.346;9.522;2023-03-23T16:57:11;15.00;99.90
10441;DHT22;5268;49.346;9.522;2023-03-23T17:02:14;15.00;99.90
10441;DHT22;5268;49.346;9.522;2023-03-23T17:07:17;15.00;99.90
10441;DHT22;5268;49.346;9.522;2023-03-23T17:12:19;15.00;99.90
10441;DHT22;5268;49.346;9.522;2023-03-23T17:17:22;14.90;99.90
10441;DHT22;5268;49.346;9.522;2023-03-23T17:22:25;14.90;99.90
10441;DHT22;5268;49.346;9.522;2023-03-23T17:27:28;14.90;99.90
10441;DHT22;5268;49.346;9.522;2023-03-23T17:32:30;14.90;99.90
10441;DHT22;5268;49.346;9.522;2023-03-23T17:37:34;14.80;99.90
10441;DHT22;5268;49.346;9.522;2023-03-23T17:42:37;14.80;99.90
10441;DHT22;5268;49.346;9.522;2023-03-23T17:47:39;14.70;99.90
10441;DHT22;5268;49.346;9.522;2023-03-23T17:52:43;14.70;99.90
10441;DHT22;5268;49.346;9.522;2023-03-23T17:57:44;14.70;99.90
10441;DHT22;5268;49.346;9.522;2023-03-23T18:02:46;14.60;99.90
10441;DHT22;5268;49.346;9.522;2023-03-23T18:07:50;14.60;99.90
10441;DHT22;5268;49.346;9.522;2023-03-23T18:12:52;14.60;99.90
10441;DHT22;5268;49.346;9.522;2023-03-23T18:17:53;14.50;99.90
10441;DHT22;5268;49.346;9.522;2023-03-23T18:22:58;14.50;99.90
10441;DHT22;5268;49.346;9.522;2023-03-23T18:28:00;14.40;99.90
10441;DHT22;5268;49.346;9.522;2023-03-23T18:33:03;14.40;99.90
10441;DHT22;5268;49.346;9.522;2023-03-23T18:38:06;14.30;99.90
10441;DHT22;5268;49.346;9.522;2023-03-23T18:43:08;14.20;99.90
10441;DHT22;5268;49.346;9.522;2023-03-23T18:48:10;14.20;99.90
10441;DHT22;5268;49.346;9.522;2023-03-23T18:53:14;14.10;99.90
10441;DHT22;5268;49.346;9.522;2023-03-23T18:58:17;14.10;99.90
10441;DHT22;5268;49.346;9.522;2023-03-23T19:03:19;14.00;99.90
10441;DHT22;5268;49.346;9.522;2023-03-23T19:08:22;13.90;99.90
10441;DHT22;5268;49.346;9.522;2023-03-23T19:13:25;13.80;99.90
10441;DHT22;5268;49.346;9.522;2023-03-23T19:18:27;13.80;99.90
10441;DHT22;5268;49.346;9.522;2023-03-23T19:23:30;13.70;99.90
10441;DHT22;5268;49.346;9.522;2023-03-23T19:28:33;13.70;99.90
10441;DHT22;5268;49.346;9.522;2023-03-23T19:33:35;13.60;99.90
10441;DHT22;5268;49.346;9.522;2023-03-23T19:38:38;13.60;99.90
10441;DHT22;5268;49.346;9.522;2023-03-23T19:43:41;13.50;99.90
10441;DHT22;5268;49.346;9.522;2023-03-23T19:48:43;13.50;99.90
10441;DHT22;5268;49.346;9.522;2023-03-23T19:53:48;13.50;99.90
10441;DHT22;5268;49.346;9.522;2023-03-23T19:58:50;13.40;99.90
10441;DHT22;5268;49.346;9.522;2023-03-23T20:03:52;13.40;99.90
10441;DHT22;5268;49.346;9.522;2023-03-23T20:08:57;13.50;99.90
10441;DHT22;5268;49.346;9.522;2023-03-23T20:13:59;13.50;99.90
10441;DHT22;5268;49.346;9.522;2023-03-23T20:19:01;13.50;99.90
10441;DHT22;5268;49.346;9.522;2023-03-23T20:24:05;13.50;99.90
10441;DHT22;5268;49.346;9.522;2023-03-23T20:29:07;13.40;99.90
10441;DHT22;5268;49.346;9.522;2023-03-23T20:34:11;13.40;99.90
10441;DHT22;5268;49.346;9.522;2023-03-23T20:39:16;13.40;99.90
10441;DHT22;5268;49.346;9.522;2023-03-23T20:44:21;13.30;99.90
10441;DHT22;5268;49.346;9.522;2023-03-23T20:49:24;13.30;99.90
10441;DHT22;5268;49.346;9.522;2023-03-23T20:54:29;13.40;99.90
10441;DHT22;5268;49.346;9.522;2023-03-23T20:59:31;13.40;99.90
10441;DHT22;5268;49.346;9.522;2023-03-23T21:04:33;13.40;99.90
10441;DHT22;5268;49.346;9.522;2023-03-23T21:09:38;13.30;99.90
10441;DHT22;5268;49.346;9.522;2023-03-23T21:14:40;13.30;99.90
10441;DHT22;5268;49.346;9.522;2023-03-23T21:19:44;13.30;99.90
10441;DHT22;5268;49.346;9.522;2023-03-23T21:24:48;13.30;99.90
10441;DHT22;5268;49.346;9.522;2023-03-23T21:29:55;13.20;99.90
10441;DHT22;5268;49.346;9.522;2023-03-23T21:34:58;13.30;99.90
10441;DHT22;5268;49.346;9.522;2023-03-23T21:40:07;13.30;99.90
10441;DHT22;5268;49.346;9.522;2023-03-23T21:45:14;13.40;99.90
10441;DHT22;5268;49.346;9.522;2023-03-23T21:50:18;13.50;99.90
10441;DHT22;5268;49.346;9.522;2023-03-23T21:55:22;13.50;99.90
10441;DHT22;5268;49.346;9.522;2023-03-23T22:00:24;13.60;99.90
10441;DHT22;5268;49.346;9.522;2023-03-23T22:05:28;13.60;99.90
10441;DHT22;5268;49.346;9.522;2023-03-23T22:10:31;13.60;99.90
10441;DHT22;5268;49.346;9.522;2023-03-23T22:15:33;13.60;99.90
10441;DHT22;5268;49.346;9.522;2023-03-23T22:20:35;13.60;99.90
10441;DHT22;5268;49.346;9.522;2023-03-23T22:25:41;13.60;99.90
10441;DHT22;5268;49.346;9.522;2023-03-23T22:30:43;13.60;99.90
10441;DHT22;5268;49.346;9.522;2023-03-23T22:35:45;13.60;99.90
10441;DHT22;5268;49.346;9.522;2023-03-23T22:40:55;13.60;99.90
10441;DHT22;5268;49.346;9.522;2023-03-23T22:45:57;13.60;99.90
10441;DHT22;5268;49.346;9.522;2023-03-23T22:51:00;13.50;99.90
